sensor_id;sensor_type;location;lat;lon;timestamp;temperature;humidity
4215;DHT22;2121;48.062;7.850;2023-03-12T00:00:34;1.20;99.90
4215;DHT22;2121;48.062;7.850;2023-03-12T00:03:00;1.20;99.90
4215;DHT22;2121;48.062;7.850;2023-03-12T00:05:26;1.30;99.90
4215;DHT22;2121;48.062;7.850;2023-03-12T00:07:52;1.40;99.90
4215;DHT22;2121;48.062;7.850;2023-03-12T00:10:19;1.30;99.90
4215;DHT22;2121;48.062;7.850;2023-03-12T00:12:45;1.20;99.90
4215;DHT22;2121;48.062;7.850;2023-03-12T00:15:11;1.20;99.90
4215;DHT22;2121;48.062;7.850;2023-03-12T00:17:37;1.30;99.90
4215;DHT22;2121;48.062;7.850;2023-03-12T00:20:04;1.40;99.90
4215;DHT22;2121;48.062;7.850;2023-03-12T00:22:32;1.40;99.90
4215;DHT22;2121;48.062;7.850;2023-03-12T00:24:58;1.40;99.90
4215;DHT22;2121;48.062;7.850;2023-03-12T00:27:24;1.50;99.90
4215;DHT22;2121;48.062;7.850;2023-03-12T00:29:51;1.50;99.90
4215;DHT22;2121;48.062;7.850;2023-03-12T00:32:16;1.60;99.90
4215;DHT22;2121;48.062;7.850;2023-03-12T00:34:42;1.60;99.90
4215;DHT22;2121;48.062;7.850;2023-03-12T00:37:08;1.70;99.90
4215;DHT22;2121;48.062;7.850;2023-03-12T00:39:34;1.80;99.90
4215;DHT22;2121;48.062;7.850;2023-03-12T00:42:01;1.80;99.90
4215;DHT22;2121;48.062;7.850;2023-03-12T00:44:26;1.80;99.90
4215;DHT22;2121;48.062;7.850;2023-03-12T00:46:52;1.90;99.90
4215;DHT22;2121;48.062;7.850;2023-03-12T00:49:18;1.90;99.90
4215;DHT22;2121;48.062;7.850;2023-03-12T00:51:43;1.90;99.90
4215;DHT22;2121;48.062;7.850;2023-03-12T00:54:10;1.80;99.90
4215;DHT22;2121;48.062;7.850;2023-03-12T00:56:35;1.80;99.90
4215;DHT22;2121;48.062;7.850;2023-03-12T00:59:01;1.70;99.90
4215;DHT22;2121;48.062;7.850;2023-03-12T01:01:27;1.70;99.90
4215;DHT22;2121;48.062;7.850;2023-03-12T01:03:53;1.60;99.90
4215;DHT22;2121;48.062;7.850;2023-03-12T01:06:20;1.50;99.90
4215;DHT22;2121;48.062;7.850;2023-03-12T01:08:46;1.50;99.90
4215;DHT22;2121;48.062;7.850;2023-03-12T01:11:13;1.50;99.90
4215;DHT22;2121;48.062;7.850;2023-03-12T01:13:40;1.40;99.90
4215;DHT22;2121;48.062;7.850;2023-03-12T01:16:06;1.40;99.90
4215;DHT22;2121;48.062;7.850;2023-03-12T01:18:32;1.30;99.90
4215;DHT22;2121;48.062;7.850;2023-03-12T01:20:58;1.20;99.90
4215;DHT22;2121;48.062;7.850;2023-03-12T01:23:24;1.30;99.90
4215;DHT22;2121;48.062;7.850;2023-03-12T01:25:50;1.30;99.90
4215;DHT22;2121;48.062;7.850;2023-03-12T01:28:20;1.30;99.90
4215;DHT22;2121;48.062;7.850;2023-03-12T01:30:47;1.40;99.90
4215;DHT22;2121;48.062;7.850;2023-03-12T01:33:13;1.50;99.90
4215;DHT22;2121;48.062;7.850;2023-03-12T01:35:39;1.70;99.90
4215;DHT22;2121;48.062;7.850;2023-03-12T01:38:07;1.80;99.90
4215;DHT22;2121;48.062;7.850;2023-03-12T01:40:34;1.90;99.90
4215;DHT22;2121;48.062;7.850;2023-03-12T01:43:33;2.10;99.90
4215;DHT22;2121;48.062;7.850;2023-03-12T01:46:15;2.20;99.90
4215;DHT22;2121;48.062;7.850;2023-03-12T01:48:49;2.30;99.90
4215;DHT22;2121;48.062;7.850;2023-03-12T01:51:19;2.30;99.90
4215;DHT22;2121;48.062;7.850;2023-03-12T01:53:48;2.40;99.90
4215;DHT22;2121;48.062;7.850;2023-03-12T01:56:17;2.50;99.90
4215;DHT22;2121;48.062;7.850;2023-03-12T01:58:48;2.50;99.90
4215;DHT22;2121;48.062;7.850;2023-03-12T02:01:19;2.60;99.90
4215;DHT22;2121;48.062;7.850;2023-03-12T02:03:48;2.70;99.90
4215;DHT22;2121;48.062;7.850;2023-03-12T02:06:20;2.70;99.90
4215;DHT22;2121;48.062;7.850;2023-03-12T02:08:54;2.70;99.90
4215;DHT22;2121;48.062;7.850;2023-03-12T02:11:21;2.70;99.90
4215;DHT22;2121;48.062;7.850;2023-03-12T02:13:47;2.70;99.90
4215;DHT22;2121;48.062;7.850;2023-03-12T02:16:12;2.70;99.90
4215;DHT22;2121;48.062;7.850;2023-03-12T02:18:38;2.60;99.90
4215;DHT22;2121;48.062;7.850;2023-03-12T02:21:14;2.60;99.90
4215;DHT22;2121;48.062;7.850;2023-03-12T02:24:16;2.50;99.90
4215;DHT22;2121;48.062;7.850;2023-03-12T02:26:53;2.50;99.90
4215;DHT22;2121;48.062;7.850;2023-03-12T02:29:19;2.50;99.90
4215;DHT22;2121;48.062;7.850;2023-03-12T02:31:51;2.50;99.90
4215;DHT22;2121;48.062;7.850;2023-03-12T02:34:18;2.50;99.90
4215;DHT22;2121;48.062;7.850;2023-03-12T02:36:44;2.50;99.90
4215;DHT22;2121;48.062;7.850;2023-03-12T02:39:11;2.60;99.90
4215;DHT22;2121;48.062;7.850;2023-03-12T02:41:42;2.70;99.90
4215;DHT22;2121;48.062;7.850;2023-03-12T02:44:17;2.80;99.90
4215;DHT22;2121;48.062;7.850;2023-03-12T02:46:46;2.90;99.90
4215;DHT22;2121;48.062;7.850;2023-03-12T02:49:14;2.90;99.90
4215;DHT22;2121;48.062;7.850;2023-03-12T02:51:42;2.90;99.90
4215;DHT22;2121;48.062;7.850;2023-03-12T02:54:09;2.90;99.90
4215;DHT22;2121;48.062;7.850;2023-03-12T02:56:36;2.80;99.90
4215;DHT22;2121;48.062;7.850;2023-03-12T02:59:03;2.80;99.90
4215;DHT22;2121;48.062;7.850;2023-03-12T03:01:29;2.80;99.90
4215;DHT22;2121;48.062;7.850;2023-03-12T03:03:59;2.90;99.90
4215;DHT22;2121;48.062;7.850;2023-03-12T03:06:25;2.90;99.90
4215;DHT22;2121;48.062;7.850;2023-03-12T03:08:51;2.90;99.90
4215;DHT22;2121;48.062;7.850;2023-03-12T03:11:17;2.90;99.90
4215;DHT22;2121;48.062;7.850;2023-03-12T03:13:43;2.90;99.90
4215;DHT22;2121;48.062;7.850;2023-03-12T03:16:09;2.90;99.90
4215;DHT22;2121;48.062;7.850;2023-03-12T03:18:36;2.90;99.90
4215;DHT22;2121;48.062;7.850;2023-03-12T03:21:07;2.90;99.90
4215;DHT22;2121;48.062;7.850;2023-03-12T03:23:34;2.90;99.90
4215;DHT22;2121;48.062;7.850;2023-03-12T03:26:00;3.00;99.90
4215;DHT22;2121;48.062;7.850;2023-03-12T03:28:28;3.10;99.90
4215;DHT22;2121;48.062;7.850;2023-03-12T03:30:56;3.20;99.90
4215;DHT22;2121;48.062;7.850;2023-03-12T03:33:29;3.30;99.90
4215;DHT22;2121;48.062;7.850;2023-03-12T03:35:57;3.40;99.90
4215;DHT22;2121;48.062;7.850;2023-03-12T03:38:25;3.50;99.90
4215;DHT22;2121;48.062;7.850;2023-03-12T03:40:52;3.70;99.90
4215;DHT22;2121;48.062;7.850;2023-03-12T03:43:18;3.80;99.90
4215;DHT22;2121;48.062;7.850;2023-03-12T03:45:44;4.00;99.90
4215;DHT22;2121;48.062;7.850;2023-03-12T03:48:11;4.10;99.90
4215;DHT22;2121;48.062;7.850;2023-03-12T03:50:38;4.20;99.90
4215;DHT22;2121;48.062;7.850;2023-03-12T03:53:05;4.30;99.90
4215;DHT22;2121;48.062;7.850;2023-03-12T03:55:35;4.40;99.90
4215;DHT22;2121;48.062;7.850;2023-03-12T03:58:02;4.50;99.90
4215;DHT22;2121;48.062;7.850;2023-03-12T04:00:28;4.60;99.90
4215;DHT22;2121;48.062;7.850;2023-03-12T04:02:53;4.60;99.90
4215;DHT22;2121;48.062;7.850;2023-03-12T04:05:20;4.80;99.90
4215;DHT22;2121;48.062;7.850;2023-03-12T04:07:46;5.00;99.90
4215;DHT22;2121;48.062;7.850;2023-03-12T04:10:12;5.10;99.90
4215;DHT22;2121;48.062;7.850;2023-03-12T04:12:38;5.30;99.90
4215;DHT22;2121;48.062;7.850;2023-03-12T04:15:04;5.40;99.90
4215;DHT22;2121;48.062;7.850;2023-03-12T04:17:30;5.50;99.90
4215;DHT22;2121;48.062;7.850;2023-03-12T04:19:56;5.70;99.90
4215;DHT22;2121;48.062;7.850;2023-03-12T04:22:22;5.80;99.90
4215;DHT22;2121;48.062;7.850;2023-03-12T04:24:47;5.70;99.90
4215;DHT22;2121;48.062;7.850;2023-03-12T04:27:13;5.70;99.90
4215;DHT22;2121;48.062;7.850;2023-03-12T04:29:39;5.80;99.90
4215;DHT22;2121;48.062;7.850;2023-03-12T04:32:06;5.90;99.90
4215;DHT22;2121;48.062;7.850;2023-03-12T04:34:32;6.00;99.90
4215;DHT22;2121;48.062;7.850;2023-03-12T04:37:00;6.00;99.90
4215;DHT22;2121;48.062;7.850;2023-03-12T04:39:27;6.00;99.90
4215;DHT22;2121;48.062;7.850;2023-03-12T04:41:52;6.00;99.90
4215;DHT22;2121;48.062;7.850;2023-03-12T04:44:18;6.00;99.90
4215;DHT22;2121;48.062;7.850;2023-03-12T04:46:44;6.00;99.90
4215;DHT22;2121;48.062;7.850;2023-03-12T04:49:10;6.00;99.90
4215;DHT22;2121;48.062;7.850;2023-03-12T04:51:36;6.00;99.90
4215;DHT22;2121;48.062;7.850;2023-03-12T04:54:01;6.10;99.90
4215;DHT22;2121;48.062;7.850;2023-03-12T04:56:27;6.20;99.90
4215;DHT22;2121;48.062;7.850;2023-03-12T04:58:53;6.20;99.90
4215;DHT22;2121;48.062;7.850;2023-03-12T05:01:30;6.20;99.90
4215;DHT22;2121;48.062;7.850;2023-03-12T05:03:57;6.20;99.90
4215;DHT22;2121;48.062;7.850;2023-03-12T05:06:23;6.20;99.90
4215;DHT22;2121;48.062;7.850;2023-03-12T05:08:50;6.30;99.90
4215;DHT22;2121;48.062;7.850;2023-03-12T05:11:17;6.30;99.90
4215;DHT22;2121;48.062;7.850;2023-03-12T05:13:43;6.30;99.90
4215;DHT22;2121;48.062;7.850;2023-03-12T05:16:10;6.40;99.90
4215;DHT22;2121;48.062;7.850;2023-03-12T05:18:36;6.50;99.90
4215;DHT22;2121;48.062;7.850;2023-03-12T05:21:08;6.50;99.90
4215;DHT22;2121;48.062;7.850;2023-03-12T05:23:36;6.50;99.90
4215;DHT22;2121;48.062;7.850;2023-03-12T05:26:04;6.50;99.90
4215;DHT22;2121;48.062;7.850;2023-03-12T05:28:31;6.60;99.90
4215;DHT22;2121;48.062;7.850;2023-03-12T05:30:59;6.70;99.90
4215;DHT22;2121;48.062;7.850;2023-03-12T05:33:27;6.70;99.90
4215;DHT22;2121;48.062;7.850;2023-03-12T05:35:53;6.70;99.90
4215;DHT22;2121;48.062;7.850;2023-03-12T05:38:19;6.70;99.90
4215;DHT22;2121;48.062;7.850;2023-03-12T05:40:55;6.80;99.90
4215;DHT22;2121;48.062;7.850;2023-03-12T05:43:23;6.80;99.90
4215;DHT22;2121;48.062;7.850;2023-03-12T05:45:50;6.80;99.90
4215;DHT22;2121;48.062;7.850;2023-03-12T05:48:16;6.90;99.90
4215;DHT22;2121;48.062;7.850;2023-03-12T05:50:42;6.90;99.90
4215;DHT22;2121;48.062;7.850;2023-03-12T05:53:08;6.90;99.90
4215;DHT22;2121;48.062;7.850;2023-03-12T05:55:38;7.00;99.90
4215;DHT22;2121;48.062;7.850;2023-03-12T05:58:06;7.00;99.90
4215;DHT22;2121;48.062;7.850;2023-03-12T06:00:32;7.00;99.90
4215;DHT22;2121;48.062;7.850;2023-03-12T06:03:03;7.10;99.90
4215;DHT22;2121;48.062;7.850;2023-03-12T06:05:30;7.20;99.90
4215;DHT22;2121;48.062;7.850;2023-03-12T06:07:57;7.30;99.90
4215;DHT22;2121;48.062;7.850;2023-03-12T06:10:22;7.30;99.90
4215;DHT22;2121;48.062;7.850;2023-03-12T06:12:48;7.30;99.90
4215;DHT22;2121;48.062;7.850;2023-03-12T06:15:14;7.30;99.90
4215;DHT22;2121;48.062;7.850;2023-03-12T06:17:40;7.30;99.90
4215;DHT22;2121;48.062;7.850;2023-03-12T06:20:06;7.30;99.90
4215;DHT22;2121;48.062;7.850;2023-03-12T06:22:33;7.30;99.90
4215;DHT22;2121;48.062;7.850;2023-03-12T06:24:58;7.40;99.90
4215;DHT22;2121;48.062;7.850;2023-03-12T06:27:24;7.50;99.90
4215;DHT22;2121;48.062;7.850;2023-03-12T06:29:50;7.50;99.90
4215;DHT22;2121;48.062;7.850;2023-03-12T06:32:16;7.60;99.90
4215;DHT22;2121;48.062;7.850;2023-03-12T06:34:43;7.50;99.90
4215;DHT22;2121;48.062;7.850;2023-03-12T06:37:09;7.50;99.90
4215;DHT22;2121;48.062;7.850;2023-03-12T06:39:36;7.60;99.90
4215;DHT22;2121;48.062;7.850;2023-03-12T06:42:02;7.60;99.90
4215;DHT22;2121;48.062;7.850;2023-03-12T06:44:29;7.60;99.90
4215;DHT22;2121;48.062;7.850;2023-03-12T06:46:55;7.60;99.90
4215;DHT22;2121;48.062;7.850;2023-03-12T06:49:20;7.60;99.90
4215;DHT22;2121;48.062;7.850;2023-03-12T06:51:46;7.60;99.90
4215;DHT22;2121;48.062;7.850;2023-03-12T06:54:12;7.60;99.90
4215;DHT22;2121;48.062;7.850;2023-03-12T06:56:38;7.60;99.90
4215;DHT22;2121;48.062;7.850;2023-03-12T06:59:04;7.70;99.90
4215;DHT22;2121;48.062;7.850;2023-03-12T07:01:30;7.70;99.90
4215;DHT22;2121;48.062;7.850;2023-03-12T07:03:55;7.70;99.90
4215;DHT22;2121;48.062;7.850;2023-03-12T07:06:22;7.80;99.90
4215;DHT22;2121;48.062;7.850;2023-03-12T07:08:48;7.90;99.90
4215;DHT22;2121;48.062;7.850;2023-03-12T07:11:15;8.00;99.90
4215;DHT22;2121;48.062;7.850;2023-03-12T07:13:42;8.20;99.90
4215;DHT22;2121;48.062;7.850;2023-03-12T07:16:09;8.50;99.90
4215;DHT22;2121;48.062;7.850;2023-03-12T07:18:35;8.60;99.90
4215;DHT22;2121;48.062;7.850;2023-03-12T07:21:01;8.80;99.90
4215;DHT22;2121;48.062;7.850;2023-03-12T07:23:27;8.80;99.90
4215;DHT22;2121;48.062;7.850;2023-03-12T07:25:53;8.70;99.90
4215;DHT22;2121;48.062;7.850;2023-03-12T07:28:20;8.50;99.90
4215;DHT22;2121;48.062;7.850;2023-03-12T07:30:46;8.50;99.90
4215;DHT22;2121;48.062;7.850;2023-03-12T07:33:16;8.40;99.90
4215;DHT22;2121;48.062;7.850;2023-03-12T07:35:45;8.50;99.90
4215;DHT22;2121;48.062;7.850;2023-03-12T07:38:11;8.50;99.90
4215;DHT22;2121;48.062;7.850;2023-03-12T07:40:37;8.50;99.90
4215;DHT22;2121;48.062;7.850;2023-03-12T07:43:04;8.60;99.90
4215;DHT22;2121;48.062;7.850;2023-03-12T07:45:38;8.70;99.90
4215;DHT22;2121;48.062;7.850;2023-03-12T07:48:04;8.80;99.90
4215;DHT22;2121;48.062;7.850;2023-03-12T07:50:31;9.00;99.90
4215;DHT22;2121;48.062;7.850;2023-03-12T07:52:57;9.10;99.90
4215;DHT22;2121;48.062;7.850;2023-03-12T07:55:23;9.10;99.90
4215;DHT22;2121;48.062;7.850;2023-03-12T07:57:49;9.00;99.90
4215;DHT22;2121;48.062;7.850;2023-03-12T08:00:14;9.00;99.90
4215;DHT22;2121;48.062;7.850;2023-03-12T08:02:41;9.10;99.90
4215;DHT22;2121;48.062;7.850;2023-03-12T08:05:07;9.20;99.90
4215;DHT22;2121;48.062;7.850;2023-03-12T08:07:34;9.30;99.90
4215;DHT22;2121;48.062;7.850;2023-03-12T08:10:01;9.30;99.90
4215;DHT22;2121;48.062;7.850;2023-03-12T08:12:28;9.30;99.90
4215;DHT22;2121;48.062;7.850;2023-03-12T08:14:54;9.40;99.90
4215;DHT22;2121;48.062;7.850;2023-03-12T08:17:20;9.40;99.90
4215;DHT22;2121;48.062;7.850;2023-03-12T08:19:46;9.50;99.90
4215;DHT22;2121;48.062;7.850;2023-03-12T08:22:11;9.40;99.90
4215;DHT22;2121;48.062;7.850;2023-03-12T08:24:37;9.50;99.90
4215;DHT22;2121;48.062;7.850;2023-03-12T08:27:03;9.60;99.90
4215;DHT22;2121;48.062;7.850;2023-03-12T08:29:28;9.70;99.90
4215;DHT22;2121;48.062;7.850;2023-03-12T08:31:54;9.80;99.90
4215;DHT22;2121;48.062;7.850;2023-03-12T08:34:20;9.90;99.90
4215;DHT22;2121;48.062;7.850;2023-03-12T08:36:46;10.00;99.90
4215;DHT22;2121;48.062;7.850;2023-03-12T08:39:12;10.10;99.90
4215;DHT22;2121;48.062;7.850;2023-03-12T08:41:37;10.30;99.90
4215;DHT22;2121;48.062;7.850;2023-03-12T08:44:03;10.30;99.90
4215;DHT22;2121;48.062;7.850;2023-03-12T08:46:29;10.40;99.90
4215;DHT22;2121;48.062;7.850;2023-03-12T08:48:54;10.40;99.90
4215;DHT22;2121;48.062;7.850;2023-03-12T08:51:20;10.50;99.90
4215;DHT22;2121;48.062;7.850;2023-03-12T08:53:46;10.70;99.90
4215;DHT22;2121;48.062;7.850;2023-03-12T08:56:12;10.70;99.90
4215;DHT22;2121;48.062;7.850;2023-03-12T08:58:37;10.80;99.90
4215;DHT22;2121;48.062;7.850;2023-03-12T09:01:10;10.70;99.90
4215;DHT22;2121;48.062;7.850;2023-03-12T09:03:37;10.60;99.90
4215;DHT22;2121;48.062;7.850;2023-03-12T09:06:11;10.70;99.90
4215;DHT22;2121;48.062;7.850;2023-03-12T09:08:39;10.60;99.90
4215;DHT22;2121;48.062;7.850;2023-03-12T09:11:05;10.70;99.90
4215;DHT22;2121;48.062;7.850;2023-03-12T09:13:33;10.80;99.90
4215;DHT22;2121;48.062;7.850;2023-03-12T09:16:00;10.80;99.90
4215;DHT22;2121;48.062;7.850;2023-03-12T09:18:27;10.90;99.90
4215;DHT22;2121;48.062;7.850;2023-03-12T09:20:55;11.00;99.90
4215;DHT22;2121;48.062;7.850;2023-03-12T09:23:21;11.20;99.90
4215;DHT22;2121;48.062;7.850;2023-03-12T09:25:47;11.10;99.90
4215;DHT22;2121;48.062;7.850;2023-03-12T09:28:13;11.10;99.90
4215;DHT22;2121;48.062;7.850;2023-03-12T09:30:39;11.20;99.90
4215;DHT22;2121;48.062;7.850;2023-03-12T09:33:05;11.50;99.90
4215;DHT22;2121;48.062;7.850;2023-03-12T09:35:31;11.60;99.90
4215;DHT22;2121;48.062;7.850;2023-03-12T09:37:58;11.60;99.90
4215;DHT22;2121;48.062;7.850;2023-03-12T09:40:26;11.40;99.90
4215;DHT22;2121;48.062;7.850;2023-03-12T09:43:20;11.50;99.90
4215;DHT22;2121;48.062;7.850;2023-03-12T09:45:55;11.70;99.90
4215;DHT22;2121;48.062;7.850;2023-03-12T09:48:31;11.60;99.90
4215;DHT22;2121;48.062;7.850;2023-03-12T09:51:13;11.40;99.90
4215;DHT22;2121;48.062;7.850;2023-03-12T09:53:46;11.20;99.90
4215;DHT22;2121;48.062;7.850;2023-03-12T09:56:16;11.20;99.90
4215;DHT22;2121;48.062;7.850;2023-03-12T09:58:44;11.20;99.90
4215;DHT22;2121;48.062;7.850;2023-03-12T10:01:34;11.10;99.90
4215;DHT22;2121;48.062;7.850;2023-03-12T10:04:31;11.20;99.90
4215;DHT22;2121;48.062;7.850;2023-03-12T10:07:18;11.20;99.90
4215;DHT22;2121;48.062;7.850;2023-03-12T10:26:55;12.10;99.90
4215;DHT22;2121;48.062;7.850;2023-03-12T10:29:29;12.30;99.90
4215;DHT22;2121;48.062;7.850;2023-03-12T10:32:16;12.40;99.90
4215;DHT22;2121;48.062;7.850;2023-03-12T10:34:49;12.30;99.90
4215;DHT22;2121;48.062;7.850;2023-03-12T10:40:03;12.50;99.90
4215;DHT22;2121;48.062;7.850;2023-03-12T10:42:31;12.60;99.90
4215;DHT22;2121;48.062;7.850;2023-03-12T10:47:43;12.40;99.90
4215;DHT22;2121;48.062;7.850;2023-03-12T10:52:53;12.80;99.90
4215;DHT22;2121;48.062;7.850;2023-03-12T10:55:37;13.00;99.90
4215;DHT22;2121;48.062;7.850;2023-03-12T10:58:03;13.10;99.90
4215;DHT22;2121;48.062;7.850;2023-03-12T11:00:31;12.90;99.90
4215;DHT22;2121;48.062;7.850;2023-03-12T11:03:05;13.00;99.90
4215;DHT22;2121;48.062;7.850;2023-03-12T11:05:51;13.30;99.90
4215;DHT22;2121;48.062;7.850;2023-03-12T11:08:29;13.50;99.90
4215;DHT22;2121;48.062;7.850;2023-03-12T11:10:58;13.90;99.90
4215;DHT22;2121;48.062;7.850;2023-03-12T11:13:32;14.00;99.90
4215;DHT22;2121;48.062;7.850;2023-03-12T11:21:18;14.90;99.90
4215;DHT22;2121;48.062;7.850;2023-03-12T11:26:28;14.90;99.90
4215;DHT22;2121;48.062;7.850;2023-03-12T11:28:58;15.00;99.90
4215;DHT22;2121;48.062;7.850;2023-03-12T11:31:36;15.00;99.90
4215;DHT22;2121;48.062;7.850;2023-03-12T11:34:28;14.40;99.90
4215;DHT22;2121;48.062;7.850;2023-03-12T11:42:29;14.30;99.90
4215;DHT22;2121;48.062;7.850;2023-03-12T11:45:20;14.40;99.90
4215;DHT22;2121;48.062;7.850;2023-03-12T11:54:45;13.70;99.90
4215;DHT22;2121;48.062;7.850;2023-03-12T11:57:41;13.50;99.90
4215;DHT22;2121;48.062;7.850;2023-03-12T12:00:38;14.40;99.90
4215;DHT22;2121;48.062;7.850;2023-03-12T12:03:38;15.10;99.90
4215;DHT22;2121;48.062;7.850;2023-03-12T12:09:37;14.70;99.90
4215;DHT22;2121;48.062;7.850;2023-03-12T12:15:19;15.60;99.90
4215;DHT22;2121;48.062;7.850;2023-03-12T12:23:25;14.90;99.90
4215;DHT22;2121;48.062;7.850;2023-03-12T12:26:33;14.50;99.90
4215;DHT22;2121;48.062;7.850;2023-03-12T12:29:29;14.10;99.90
4215;DHT22;2121;48.062;7.850;2023-03-12T12:32:01;14.00;99.90
4215;DHT22;2121;48.062;7.850;2023-03-12T12:37:45;13.60;99.90
4215;DHT22;2121;48.062;7.850;2023-03-12T12:40:40;13.50;99.90
4215;DHT22;2121;48.062;7.850;2023-03-12T12:43:25;13.20;99.90
4215;DHT22;2121;48.062;7.850;2023-03-12T12:45:56;13.10;99.70
4215;DHT22;2121;48.062;7.850;2023-03-12T12:51:35;13.10;99.10
4215;DHT22;2121;48.062;7.850;2023-03-12T12:57:06;13.20;98.50
4215;DHT22;2121;48.062;7.850;2023-03-12T13:02:45;13.60;98.00
4215;DHT22;2121;48.062;7.850;2023-03-12T13:05:24;13.80;96.90
4215;DHT22;2121;48.062;7.850;2023-03-12T13:07:51;13.90;96.80
4215;DHT22;2121;48.062;7.850;2023-03-12T13:10:38;14.20;96.90
4215;DHT22;2121;48.062;7.850;2023-03-12T13:13:12;14.30;96.90
4215;DHT22;2121;48.062;7.850;2023-03-12T13:15:44;14.40;97.10
4215;DHT22;2121;48.062;7.850;2023-03-12T13:18:25;14.20;97.10
4215;DHT22;2121;48.062;7.850;2023-03-12T13:28:56;14.90;96.00
4215;DHT22;2121;48.062;7.850;2023-03-12T13:31:39;14.60;95.70
4215;DHT22;2121;48.062;7.850;2023-03-12T13:36:45;14.70;95.60
4215;DHT22;2121;48.062;7.850;2023-03-12T13:39:32;14.90;95.10
4215;DHT22;2121;48.062;7.850;2023-03-12T13:42:36;15.30;94.80
4215;DHT22;2121;48.062;7.850;2023-03-12T13:45:21;15.50;94.80
4215;DHT22;2121;48.062;7.850;2023-03-12T13:47:55;16.20;94.20
4215;DHT22;2121;48.062;7.850;2023-03-12T13:50:24;16.20;93.20
4215;DHT22;2121;48.062;7.850;2023-03-12T13:53:03;16.30;93.50
4215;DHT22;2121;48.062;7.850;2023-03-12T13:55:32;16.00;93.00
4215;DHT22;2121;48.062;7.850;2023-03-12T13:58:04;16.10;93.20
4215;DHT22;2121;48.062;7.850;2023-03-12T14:00:50;15.90;92.90
4215;DHT22;2121;48.062;7.850;2023-03-12T14:03:30;15.90;92.60
4215;DHT22;2121;48.062;7.850;2023-03-12T14:06:26;16.10;92.20
4215;DHT22;2121;48.062;7.850;2023-03-12T14:12:21;16.10;91.20
4215;DHT22;2121;48.062;7.850;2023-03-12T14:15:03;15.40;91.40
4215;DHT22;2121;48.062;7.850;2023-03-12T14:17:35;15.20;91.50
4215;DHT22;2121;48.062;7.850;2023-03-12T14:22:59;15.40;91.80
4215;DHT22;2121;48.062;7.850;2023-03-12T14:25:43;15.40;91.30
4215;DHT22;2121;48.062;7.850;2023-03-12T14:28:16;15.30;91.50
4215;DHT22;2121;48.062;7.850;2023-03-12T14:30:58;15.00;91.90
4215;DHT22;2121;48.062;7.850;2023-03-12T14:33:34;15.00;91.60
4215;DHT22;2121;48.062;7.850;2023-03-12T14:36:14;15.00;91.30
4215;DHT22;2121;48.062;7.850;2023-03-12T14:38:46;15.00;91.80
4215;DHT22;2121;48.062;7.850;2023-03-12T14:41:23;15.40;92.10
4215;DHT22;2121;48.062;7.850;2023-03-12T14:43:53;15.50;91.70
4215;DHT22;2121;48.062;7.850;2023-03-12T14:46:28;15.40;91.80
4215;DHT22;2121;48.062;7.850;2023-03-12T14:48:54;15.50;92.00
4215;DHT22;2121;48.062;7.850;2023-03-12T14:51:23;15.50;91.90
4215;DHT22;2121;48.062;7.850;2023-03-12T14:53:53;15.40;91.50
4215;DHT22;2121;48.062;7.850;2023-03-12T14:56:28;15.50;91.00
4215;DHT22;2121;48.062;7.850;2023-03-12T14:59:17;15.50;91.00
4215;DHT22;2121;48.062;7.850;2023-03-12T15:01:45;15.50;90.80
4215;DHT22;2121;48.062;7.850;2023-03-12T15:04:15;15.50;90.70
4215;DHT22;2121;48.062;7.850;2023-03-12T15:06:49;15.40;90.90
4215;DHT22;2121;48.062;7.850;2023-03-12T15:09:19;15.40;90.70
4215;DHT22;2121;48.062;7.850;2023-03-12T15:11:55;15.30;90.80
4215;DHT22;2121;48.062;7.850;2023-03-12T15:14:34;15.40;91.40
4215;DHT22;2121;48.062;7.850;2023-03-12T15:17:04;15.40;91.00
4215;DHT22;2121;48.062;7.850;2023-03-12T15:19:34;15.30;91.20
4215;DHT22;2121;48.062;7.850;2023-03-12T15:22:03;15.20;90.90
4215;DHT22;2121;48.062;7.850;2023-03-12T15:24:37;15.10;91.60
4215;DHT22;2121;48.062;7.850;2023-03-12T15:27:32;15.00;91.40
4215;DHT22;2121;48.062;7.850;2023-03-12T15:30:00;15.10;91.90
4215;DHT22;2121;48.062;7.850;2023-03-12T15:32:27;15.40;91.50
4215;DHT22;2121;48.062;7.850;2023-03-12T15:34:56;15.50;91.70
4215;DHT22;2121;48.062;7.850;2023-03-12T15:37:24;15.50;91.90
4215;DHT22;2121;48.062;7.850;2023-03-12T15:39:57;15.50;91.60
4215;DHT22;2121;48.062;7.850;2023-03-12T15:42:27;15.50;91.70
4215;DHT22;2121;48.062;7.850;2023-03-12T15:45:00;15.40;91.30
4215;DHT22;2121;48.062;7.850;2023-03-12T15:47:33;15.60;91.40
4215;DHT22;2121;48.062;7.850;2023-03-12T15:50:10;15.70;91.10
4215;DHT22;2121;48.062;7.850;2023-03-12T15:53:21;15.70;91.20
4215;DHT22;2121;48.062;7.850;2023-03-12T15:58:39;15.50;91.80
4215;DHT22;2121;48.062;7.850;2023-03-12T16:03:33;15.20;92.00
4215;DHT22;2121;48.062;7.850;2023-03-12T16:05:59;14.90;92.20
4215;DHT22;2121;48.062;7.850;2023-03-12T16:08:35;14.90;92.60
4215;DHT22;2121;48.062;7.850;2023-03-12T16:11:03;14.90;92.50
4215;DHT22;2121;48.062;7.850;2023-03-12T16:13:31;14.90;92.50
4215;DHT22;2121;48.062;7.850;2023-03-12T16:15:57;15.00;92.70
4215;DHT22;2121;48.062;7.850;2023-03-12T16:18:23;14.90;92.70
4215;DHT22;2121;48.062;7.850;2023-03-12T16:20:51;14.80;92.70
4215;DHT22;2121;48.062;7.850;2023-03-12T16:23:17;15.00;93.00
4215;DHT22;2121;48.062;7.850;2023-03-12T16:25:47;15.00;92.90
4215;DHT22;2121;48.062;7.850;2023-03-12T16:28:16;15.10;93.00
4215;DHT22;2121;48.062;7.850;2023-03-12T16:30:44;15.20;93.10
4215;DHT22;2121;48.062;7.850;2023-03-12T16:33:14;15.40;92.90
4215;DHT22;2121;48.062;7.850;2023-03-12T16:35:42;15.40;92.70
4215;DHT22;2121;48.062;7.850;2023-03-12T16:38:08;15.30;93.00
4215;DHT22;2121;48.062;7.850;2023-03-12T16:40:37;15.10;93.00
4215;DHT22;2121;48.062;7.850;2023-03-12T16:43:06;15.20;93.00
4215;DHT22;2121;48.062;7.850;2023-03-12T16:45:43;15.10;93.20
4215;DHT22;2121;48.062;7.850;2023-03-12T16:48:14;15.00;93.20
4215;DHT22;2121;48.062;7.850;2023-03-12T16:50:46;14.80;93.40
4215;DHT22;2121;48.062;7.850;2023-03-12T16:53:16;14.60;93.80
4215;DHT22;2121;48.062;7.850;2023-03-12T16:56:13;14.30;94.00
4215;DHT22;2121;48.062;7.850;2023-03-12T16:58:44;14.20;93.70
4215;DHT22;2121;48.062;7.850;2023-03-12T17:01:12;14.10;93.70
4215;DHT22;2121;48.062;7.850;2023-03-12T17:03:40;14.00;93.80
4215;DHT22;2121;48.062;7.850;2023-03-12T17:06:13;13.80;93.80
4215;DHT22;2121;48.062;7.850;2023-03-12T17:08:44;13.70;94.20
4215;DHT22;2121;48.062;7.850;2023-03-12T17:11:16;13.60;94.30
4215;DHT22;2121;48.062;7.850;2023-03-12T17:13:56;13.50;94.40
4215;DHT22;2121;48.062;7.850;2023-03-12T17:16:24;13.30;94.70
4215;DHT22;2121;48.062;7.850;2023-03-12T17:18:49;13.10;95.00
4215;DHT22;2121;48.062;7.850;2023-03-12T17:21:16;13.00;95.10
4215;DHT22;2121;48.062;7.850;2023-03-12T17:23:46;13.00;95.20
4215;DHT22;2121;48.062;7.850;2023-03-12T17:26:13;12.90;95.50
4215;DHT22;2121;48.062;7.850;2023-03-12T17:28:39;12.70;95.50
4215;DHT22;2121;48.062;7.850;2023-03-12T17:31:14;12.60;95.50
4215;DHT22;2121;48.062;7.850;2023-03-12T17:33:39;12.60;95.50
4215;DHT22;2121;48.062;7.850;2023-03-12T17:36:08;12.60;95.80
4215;DHT22;2121;48.062;7.850;2023-03-12T17:38:34;12.50;95.80
4215;DHT22;2121;48.062;7.850;2023-03-12T17:41:01;12.40;95.90
4215;DHT22;2121;48.062;7.850;2023-03-12T17:43:27;12.20;96.10
4215;DHT22;2121;48.062;7.850;2023-03-12T17:45:53;12.20;96.20
4215;DHT22;2121;48.062;7.850;2023-03-12T17:48:19;12.10;96.30
4215;DHT22;2121;48.062;7.850;2023-03-12T17:50:47;12.00;96.50
4215;DHT22;2121;48.062;7.850;2023-03-12T17:53:14;12.00;96.70
4215;DHT22;2121;48.062;7.850;2023-03-12T17:55:41;11.90;96.80
4215;DHT22;2121;48.062;7.850;2023-03-12T17:58:07;11.90;97.00
4215;DHT22;2121;48.062;7.850;2023-03-12T18:00:33;11.90;97.10